This is the latest recevied weather packets stored in our database for station/object KC8SWY-15. If no packets are shown the sender has not sent any weather packets the latest 10 day(s).
| Time | Temp. | Humidity | Pressure | Rain* | Wind** | Luminosity | Snow |
|---|---|---|---|---|---|---|---|
| 1777972170 | 11.67° C | 60% | 1003.5 hPa | 0 mm | - | - | - |
| 1777971870 | 11.67° C | 60% | 1003.5 hPa | 0 mm | - | - | - |
| 1777971570 | 11.67° C | 60% | 1003.4 hPa | 0 mm | - | - | - |
| 1777971270 | 11.67° C | 59% | 1002.7 hPa | 0 mm | - | - | - |
| 1777970970 | 11.67° C | 60% | 1002.8 hPa | 0 mm | - | - | - |
| 1777970670 | 12.22° C | 59% | 1002.8 hPa | 0 mm | - | - | - |
| 1777970370 | 12.22° C | 59% | 1002.9 hPa | 0 mm | - | - | - |
| 1777970070 | 12.22° C | 60% | 1002.9 hPa | 0 mm | - | - | - |
| 1777969770 | 12.22° C | 60% | 1002.7 hPa | 0 mm | - | - | - |
| 1777969470 | 12.22° C | 59% | 1002.4 hPa | 0 mm | - | - | - |
| 1777969170 | 12.78° C | 60% | 1002.4 hPa | 0 mm | - | - | - |
| 1777968870 | 12.78° C | 60% | 1002.4 hPa | 0 mm | - | - | - |
| 1777968570 | 12.78° C | 60% | 1002.4 hPa | 0 mm | - | - | - |
| 1777968271 | 12.78° C | 60% | 1002 hPa | 0 mm | - | - | - |
| 1777967970 | 12.78° C | 61% | 1001.8 hPa | 0 mm | - | - | - |
| 1777967670 | 12.78° C | 61% | 1001.7 hPa | 0 mm | - | - | - |
| 1777967370 | 12.78° C | 61% | 1001.6 hPa | 0 mm | - | - | - |
| 1777967071 | 13.33° C | 61% | 1001.7 hPa | 0 mm | - | - | - |
| 1777966771 | 13.33° C | 61% | 1001.7 hPa | 0 mm | - | - | - |
| 1777966471 | 13.33° C | 60% | 1001.8 hPa | 0 mm | - | - | - |
| 1777966171 | 13.89° C | 60% | 1001.6 hPa | 0 mm | - | - | - |
| 1777965871 | 13.89° C | 60% | 1001.5 hPa | 0 mm | - | - | - |
| 1777965571 | 13.89° C | 63% | 1001.5 hPa | 0 mm | - | - | - |
| 1777965271 | 13.89° C | 65% | 1002 hPa | 0 mm | - | - | - |
| 1777964971 | 13.89° C | 70% | 1002.3 hPa | 0 mm | - | - | - |
* Rain latest hour (hover to see other rain measurements)
** Current wind speed in m/s (hover to see current wind gust speed)